Time;durP1;ratioP1;P1;durP2;ratioP2;P2;SDS_P1;SDS_P2;PMS_P1;PMS_P2;Temp;Humidity;BMP_temperature;BMP_pressure;BME280_temperature;BME280_humidity;BME280_pressure;Samples;Min_cycle;Max_cycle;Signal;HPM_P1;HPM_P2
2021/06/12 00:00:49;;;;;;;0.60;0.40;;;19.00;73.30;;;;;;4928152;29;20613;-71
2021/06/12 00:03:17;;;;;;;1.23;0.30;;;19.20;71.80;;;;;;4931559;29;20487;-71
2021/06/12 00:05:44;;;;;;;1.75;0.50;;;19.20;72.90;;;;;;4917913;28;20067;-71
2021/06/12 00:08:11;;;;;;;1.23;0.50;;;19.20;72.30;;;;;;4925411;29;20107;-71
2021/06/12 00:10:40;;;;;;;0.60;0.30;;;19.40;71.40;;;;;;4924552;29;20050;-72
2021/06/12 00:13:08;;;;;;;0.57;0.30;;;19.60;71.30;;;;;;4923825;29;20038;-70
2021/06/12 00:15:36;;;;;;;0.20;0.20;;;19.80;70.10;;;;;;4919124;29;20406;-69
2021/06/12 00:18:04;;;;;;;0.63;0.45;;;20.00;71.90;;;;;;4923435;29;20071;-71
2021/06/12 00:20:35;;;;;;;1.05;0.40;;;20.50;67.70;;;;;;4925102;29;20118;-71
2021/06/12 00:23:03;;;;;;;3.13;0.90;;;20.50;67.30;;;;;;4926681;29;20028;-70
2021/06/12 00:25:34;;;;;;;1.17;0.40;;;20.60;65.90;;;;;;4926673;29;20028;-72
2021/06/12 00:28:02;;;;;;;0.35;0.30;;;20.90;64.70;;;;;;4917182;29;20055;-73
2021/06/12 00:30:30;;;;;;;0.20;0.10;;;20.90;63.00;;;;;;4924176;29;20134;-72
2021/06/12 00:32:58;;;;;;;2.95;1.50;;;20.90;64.70;;;;;;4925268;29;20031;-72
2021/06/12 00:35:27;;;;;;;0.40;0.30;;;21.30;62.00;;;;;;4922736;29;20043;-73
2021/06/12 00:37:55;;;;;;;0.43;0.20;;;21.00;62.60;;;;;;4923706;29;20087;-72
2021/06/12 00:40:23;;;;;;;0.22;0.20;;;21.10;62.70;;;;;;4926203;29;20147;-72
2021/06/12 00:42:52;;;;;;;0.43;0.30;;;21.40;61.10;;;;;;4923595;29;20062;-71
2021/06/12 00:45:22;;;;;;;0.57;0.30;;;22.00;61.60;;;;;;4924712;29;20113;-73
2021/06/12 00:47:52;;;;;;;0.52;0.20;;;21.90;59.30;;;;;;4923548;29;20032;-71
2021/06/12 00:50:21;;;;;;;1.73;0.30;;;21.70;59.60;;;;;;4926388;29;20474;-73
2021/06/12 00:52:49;;;;;;;2.17;0.25;;;22.00;59.20;;;;;;4923743;29;20086;-72
2021/06/12 00:55:17;;;;;;;0.40;0.20;;;21.80;57.60;;;;;;4923948;29;20036;-72
2021/06/12 00:57:45;;;;;;;0.47;0.30;;;22.30;57.90;;;;;;4924994;29;20036;-73
2021/06/12 01:00:15;;;;;;;0.20;0.20;;;22.00;58.60;;;;;;4923054;29;20040;-72
2021/06/12 01:02:43;;;;;;;1.00;0.25;;;22.50;58.40;;;;;;4923818;29;20098;-72
2021/06/12 01:05:12;;;;;;;0.22;0.20;;;22.50;56.80;;;;;;4924884;29;20019;-69
2021/06/12 01:07:40;;;;;;;0.30;0.20;;;22.50;56.00;;;;;;4921902;29;20032;-71
2021/06/12 01:10:10;;;;;;;0.20;0.20;;;22.30;56.30;;;;;;4928013;29;20107;-70
2021/06/12 01:12:53;;;;;;;3.13;0.35;;;22.80;58.00;;;;;;4928404;29;20114;-71
2021/06/12 01:15:22;;;;;;;0.40;0.20;;;23.10;53.50;;;;;;4923728;29;20107;-70
2021/06/12 01:18:02;;;;;;;0.15;0.10;;;22.60;54.20;;;;;;4924645;29;20493;-71
2021/06/12 01:20:42;;;;;;;0.22;0.10;;;22.10;55.10;;;;;;4925132;29;20047;-69
2021/06/12 01:23:12;;;;;;;0.32;0.30;;;21.70;58.00;;;;;;4924128;29;20039;-70
2021/06/12 01:25:42;;;;;;;0.30;0.22;;;20.90;56.40;;;;;;4923836;29;20099;-72
2021/06/12 01:28:32;;;;;;;0.20;0.13;;;20.10;58.50;;;;;;4924605;29;20043;-70
2021/06/12 01:31:01;;;;;;;0.10;0.10;;;19.50;58.70;;;;;;4924379;29;20075;-70
2021/06/12 01:33:29;;;;;;;0.17;0.17;;;19.20;59.30;;;;;;4924986;29;20039;-73
2021/06/12 01:36:05;;;;;;;0.38;0.10;;;19.00;61.00;;;;;;4928615;29;20032;-73
2021/06/12 01:38:36;;;;;;;0.03;0.03;;;19.00;58.70;;;;;;4912787;29;20071;-71
2021/06/12 01:41:09;;;;;;;0.10;0.10;;;18.80;59.60;;;;;;4919792;29;20087;-72
2021/06/12 01:43:39;;;;;;;0.20;0.10;;;18.70;60.80;;;;;;4922510;29;20380;-70
2021/06/12 01:46:12;;;;;;;0.10;0.10;;;18.50;60.00;;;;;;4922493;29;20062;-71
2021/06/12 01:48:45;;;;;;;0.40;0.40;;;18.30;59.90;;;;;;4926146;29;20106;-70
2021/06/12 01:51:13;;;;;;;0.13;0.10;;;18.60;59.30;;;;;;4926331;29;20039;-70
2021/06/12 01:53:43;;;;;;;0.10;0.00;;;18.50;60.70;;;;;;4926562;29;20439;-68
2021/06/12 01:56:12;;;;;;;0.00;0.00;;;18.40;59.80;;;;;;4923875;29;20096;-69
2021/06/12 01:58:43;;;;;;;0.10;0.10;;;18.30;60.10;;;;;;4927792;29;20027;-70
2021/06/12 02:01:18;;;;;;;1.05;0.20;;;18.10;60.60;;;;;;4922620;29;20094;-71
2021/06/12 02:03:47;;;;;;;0.22;0.17;;;18.00;60.80;;;;;;4923640;29;20118;-70
2021/06/12 02:06:17;;;;;;;1.13;0.10;;;17.70;60.40;;;;;;4923041;29;20026;-70
2021/06/12 02:08:46;;;;;;;0.15;0.10;;;17.70;62.20;;;;;;4923722;29;20087;-71
2021/06/12 02:11:17;;;;;;;0.40;0.20;;;17.60;61.00;;;;;;4907091;29;20041;-71
2021/06/12 02:13:46;;;;;;;0.68;0.20;;;17.50;61.80;;;;;;4923576;29;20024;-72
2021/06/12 02:16:15;;;;;;;0.95;0.20;;;17.40;62.60;;;;;;4923361;29;20090;-70
2021/06/12 02:18:46;;;;;;;2.03;0.17;;;17.50;61.10;;;;;;4924300;29;20466;-72
2021/06/12 02:21:16;;;;;;;0.10;0.10;;;17.70;63.00;;;;;;4921467;29;20043;-73
2021/06/12 02:23:44;;;;;;;0.25;0.10;;;17.90;61.60;;;;;;4920048;29;20119;-70
2021/06/12 02:26:14;;;;;;;0.22;0.10;;;17.90;61.70;;;;;;4921516;29;20480;-72
2021/06/12 02:28:43;;;;;;;0.20;0.20;;;17.70;62.80;;;;;;4922620;29;20031;-69
2021/06/12 02:31:21;;;;;;;0.52;0.10;;;17.60;64.00;;;;;;4923138;29;20056;-70
2021/06/12 02:33:49;;;;;;;0.35;0.20;;;17.30;63.60;;;;;;4923355;29;20458;-73
2021/06/12 02:36:16;;;;;;;0.17;0.15;;;17.20;62.90;;;;;;4922852;29;20991;-70
2021/06/12 02:38:44;;;;;;;0.95;0.30;;;17.30;64.10;;;;;;4925039;29;20392;-72
2021/06/12 02:41:12;;;;;;;0.50;0.28;;;17.20;63.80;;;;;;4921001;29;20032;-69
2021/06/12 02:43:39;;;;;;;0.38;0.20;;;17.30;63.60;;;;;;4912656;28;20035;-69
2021/06/12 02:46:12;;;;;;;0.75;0.30;;;17.10;63.80;;;;;;4924847;29;20062;-69
2021/06/12 02:48:41;;;;;;;1.80;0.80;;;17.10;62.90;;;;;;4921969;29;20031;-71
2021/06/12 02:51:10;;;;;;;1.20;0.40;;;17.10;63.80;;;;;;4922106;29;20079;-68
2021/06/12 02:53:43;;;;;;;1.60;0.60;;;17.10;63.60;;;;;;4918989;29;20173;-70
2021/06/12 02:56:15;;;;;;;0.52;0.38;;;17.20;64.30;;;;;;4922439;29;20238;-71
2021/06/12 02:58:43;;;;;;;1.00;0.30;;;17.10;62.90;;;;;;4923019;29;20027;-70
2021/06/12 03:01:13;;;;;;;0.75;0.20;;;17.10;63.40;;;;;;4921833;29;20106;-71
2021/06/12 03:03:41;;;;;;;0.10;0.10;;;17.00;63.80;;;;;;4921608;29;20039;-70
2021/06/12 03:06:09;;;;;;;0.40;0.20;;;17.00;62.50;;;;;;4921435;29;20058;-70
2021/06/12 03:08:44;;;;;;;0.10;0.10;;;16.90;62.70;;;;;;4923731;29;20028;-70
2021/06/12 03:11:14;;;;;;;0.30;0.30;;;16.90;64.10;;;;;;4921410;29;20036;-69
2021/06/12 03:13:45;;;;;;;0.30;0.30;;;17.20;63.80;;;;;;4911430;29;20043;-70
2021/06/12 03:16:18;;;;;;;0.73;0.22;;;17.60;63.80;;;;;;4922076;29;20036;-72
2021/06/12 03:18:47;;;;;;;0.15;0.15;;;18.10;62.20;;;;;;4921635;29;20118;-71
2021/06/12 03:21:23;;;;;;;0.45;0.10;;;18.40;59.10;;;;;;4922264;29;20032;-72
2021/06/12 03:23:53;;;;;;;0.10;0.10;;;18.50;59.50;;;;;;4923591;29;20427;-71
2021/06/12 03:26:21;;;;;;;0.10;0.10;;;18.80;58.20;;;;;;4927048;29;20047;-70
2021/06/12 03:28:49;;;;;;;0.13;0.10;;;18.90;58.20;;;;;;4925537;29;20051;-71
2021/06/12 03:31:17;;;;;;;0.30;0.10;;;18.70;58.80;;;;;;4921202;29;20036;-70
2021/06/12 03:33:46;;;;;;;0.70;0.30;;;18.70;59.10;;;;;;4928046;29;20426;-71
2021/06/12 03:36:13;;;;;;;0.20;0.10;;;18.60;59.80;;;;;;4925234;29;20031;-69
2021/06/12 03:38:41;;;;;;;0.13;0.10;;;18.40;59.80;;;;;;4925574;29;20131;-70
2021/06/12 03:41:09;;;;;;;0.65;0.20;;;18.10;59.80;;;;;;4926021;29;20032;-68
2021/06/12 03:43:38;;;;;;;0.25;0.10;;;17.90;60.50;;;;;;4914443;29;20040;-71
2021/06/12 03:46:07;;;;;;;0.20;0.10;;;17.60;60.40;;;;;;4926821;29;20690;-69
2021/06/12 03:48:35;;;;;;;0.15;0.10;;;17.50;61.50;;;;;;4925931;29;20028;-72
2021/06/12 03:51:03;;;;;;;0.20;0.10;;;17.30;61.00;;;;;;4925656;29;20031;-71
2021/06/12 03:53:43;;;;;;;0.22;0.10;;;17.20;62.20;;;;;;4925717;29;20110;-71
2021/06/12 03:56:31;;;;;;;0.35;0.30;;;17.30;62.50;;;;;;4924972;29;20035;-73
2021/06/12 03:58:58;;;;;;;0.25;0.15;;;17.30;62.90;;;;;;4927310;29;20035;-71
2021/06/12 04:01:25;;;;;;;0.30;0.20;;;17.30;62.10;;;;;;4926500;29;20095;-71
2021/06/12 04:03:53;;;;;;;0.20;0.10;;;17.20;62.70;;;;;;4927053;29;20032;-69
2021/06/12 04:06:20;;;;;;;0.80;0.10;;;17.10;62.10;;;;;;4926658;29;20102;-72
2021/06/12 04:08:51;;;;;;;0.20;0.10;;;17.10;63.00;;;;;;4924962;29;20028;-70
2021/06/12 04:11:19;;;;;;;0.10;0.10;;;17.00;62.90;;;;;;4925131;29;20139;-71
2021/06/12 04:13:46;;;;;;;0.47;0.15;;;17.00;63.20;;;;;;4923494;29;20032;-72
2021/06/12 04:16:14;;;;;;;0.10;0.10;;;17.00;64.00;;;;;;4924517;29;20042;-72
2021/06/12 04:18:41;;;;;;;0.15;0.15;;;17.00;63.30;;;;;;4927327;29;20024;-72
2021/06/12 04:21:08;;;;;;;0.22;0.17;;;16.90;64.30;;;;;;4926809;29;20035;-71
2021/06/12 04:23:36;;;;;;;1.88;0.10;;;16.70;65.00;;;;;;4926400;29;20578;-70
2021/06/12 04:26:03;;;;;;;0.68;0.38;;;16.50;65.10;;;;;;4927286;29;20044;-72
2021/06/12 04:28:31;;;;;;;0.20;0.10;;;16.50;65.00;;;;;;4929432;29;20042;-71
2021/06/12 04:30:58;;;;;;;2.38;0.20;;;16.50;66.40;;;;;;4926316;29;20130;-72
2021/06/12 04:33:26;;;;;;;1.02;0.20;;;16.40;66.00;;;;;;4929787;29;20028;-72
2021/06/12 04:35:53;;;;;;;0.10;0.10;;;16.30;66.10;;;;;;4923633;29;20035;-71
2021/06/12 04:38:21;;;;;;;0.20;0.17;;;16.40;66.20;;;;;;4929747;29;20407;-71
2021/06/12 04:40:48;;;;;;;0.10;0.10;;;16.40;66.50;;;;;;4913793;29;20402;-69
2021/06/12 04:43:16;;;;;;;0.10;0.10;;;16.50;66.80;;;;;;4922799;29;20055;-71
2021/06/12 04:45:43;;;;;;;1.85;0.20;;;16.50;66.40;;;;;;4919432;29;20035;-69
2021/06/12 04:48:11;;;;;;;1.45;0.10;;;16.50;65.70;;;;;;4918765;29;20075;-71
2021/06/12 04:50:42;;;;;;;0.10;0.10;;;16.50;65.00;;;;;;4914805;29;20071;-71
2021/06/12 04:53:12;;;;;;;0.20;0.20;;;16.60;65.30;;;;;;4915293;29;20026;-70
2021/06/12 04:55:40;;;;;;;0.32;0.10;;;16.60;64.60;;;;;;4919202;29;20042;-70
2021/06/12 04:58:10;;;;;;;0.25;0.10;;;16.60;65.00;;;;;;4919687;29;20055;-71
2021/06/12 05:00:39;;;;;;;0.82;0.20;;;16.60;64.90;;;;;;4920967;29;20047;-70
2021/06/12 05:03:07;;;;;;;0.05;0.00;;;16.50;65.00;;;;;;4922303;29;20675;-73
2021/06/12 05:05:34;;;;;;;0.30;0.10;;;16.60;65.10;;;;;;4922804;29;20055;-70
2021/06/12 05:08:02;;;;;;;0.15;0.10;;;16.60;64.70;;;;;;4924601;29;20119;-70
2021/06/12 05:10:30;;;;;;;0.55;0.10;;;16.70;66.10;;;;;;4919999;29;20070;-71
2021/06/12 05:12:58;;;;;;;0.28;0.10;;;16.60;64.10;;;;;;4924007;29;20095;-72
2021/06/12 05:15:29;;;;;;;0.10;0.10;;;16.50;64.60;;;;;;4922489;29;20035;-71
2021/06/12 05:17:58;;;;;;;0.20;0.13;;;16.60;64.30;;;;;;4924842;29;20031;-72
2021/06/12 05:20:26;;;;;;;0.43;0.20;;;16.50;64.80;;;;;;4919873;29;20031;-70
2021/06/12 05:22:54;;;;;;;0.20;0.10;;;16.40;65.40;;;;;;4926872;29;20039;-70
2021/06/12 05:25:21;;;;;;;0.10;0.10;;;16.50;65.20;;;;;;4921079;29;20066;-70
2021/06/12 05:27:49;;;;;;;0.10;0.10;;;16.50;65.40;;;;;;4918051;29;20047;-72
2021/06/12 05:30:17;;;;;;;0.25;0.13;;;16.50;64.20;;;;;;4917688;29;20095;-72
2021/06/12 05:32:45;;;;;;;0.28;0.20;;;16.50;64.90;;;;;;4916542;29;20035;-71
2021/06/12 05:35:13;;;;;;;0.10;0.10;;;16.60;63.90;;;;;;4916772;29;20131;-72
2021/06/12 05:37:41;;;;;;;1.05;0.50;;;16.60;64.00;;;;;;4918256;29;20038;-71
2021/06/12 05:40:10;;;;;;;0.13;0.10;;;16.60;64.50;;;;;;4917804;29;20035;-71
2021/06/12 05:42:38;;;;;;;0.28;0.20;;;16.60;63.80;;;;;;4904484;29;20085;-72
2021/06/12 05:45:09;;;;;;;0.57;0.47;;;16.60;64.60;;;;;;4917421;29;20115;-71
2021/06/12 05:47:37;;;;;;;0.40;0.30;;;16.60;64.30;;;;;;4917311;29;20043;-71
2021/06/12 05:50:06;;;;;;;0.55;0.22;;;16.60;64.70;;;;;;4918257;29;20024;-71
2021/06/12 05:52:34;;;;;;;0.40;0.20;;;16.60;64.70;;;;;;4916422;29;20317;-70
2021/06/12 05:55:02;;;;;;;0.25;0.25;;;16.50;64.60;;;;;;4917901;29;20036;-71
2021/06/12 05:57:29;;;;;;;0.20;0.20;;;16.50;65.00;;;;;;4918529;29;20457;-72
2021/06/12 05:59:56;;;;;;;0.68;0.30;;;16.50;65.70;;;;;;4924242;29;20062;-72
2021/06/12 06:02:24;;;;;;;1.27;0.43;;;16.50;65.80;;;;;;4926008;29;20047;-72
2021/06/12 06:04:51;;;;;;;1.05;0.50;;;16.60;65.30;;;;;;4907077;29;20032;-71
2021/06/12 06:07:18;;;;;;;0.85;0.30;;;16.60;65.60;;;;;;4920163;29;20103;-70
2021/06/12 06:09:46;;;;;;;0.82;0.40;;;16.50;65.90;;;;;;4926776;29;20036;-73
2021/06/12 06:12:13;;;;;;;0.38;0.30;;;16.30;65.90;;;;;;4914061;29;20087;-71
2021/06/12 06:14:41;;;;;;;0.98;0.38;;;16.20;66.20;;;;;;4928402;29;20512;-72
2021/06/12 06:17:09;;;;;;;0.85;0.40;;;16.30;66.60;;;;;;4924520;29;20030;-72
2021/06/12 06:19:36;;;;;;;0.75;0.40;;;16.50;66.10;;;;;;4924448;29;20039;-72
2021/06/12 06:22:04;;;;;;;1.02;0.40;;;16.70;66.10;;;;;;4925615;29;20509;-72
2021/06/12 06:24:31;;;;;;;1.23;0.55;;;16.70;65.20;;;;;;4921027;29;20051;-71
2021/06/12 06:26:59;;;;;;;1.40;0.70;;;16.80;66.10;;;;;;4909444;29;20797;-72
2021/06/12 06:29:26;;;;;;;1.02;0.50;;;16.60;65.40;;;;;;4926758;29;20027;-71
2021/06/12 06:31:54;;;;;;;2.20;0.90;;;16.40;65.50;;;;;;4919679;29;20763;-72
2021/06/12 06:34:21;;;;;;;2.72;0.70;;;16.30;65.90;;;;;;4913922;29;20087;-71
2021/06/12 06:36:49;;;;;;;1.20;0.57;;;16.20;66.40;;;;;;4926592;29;20040;-72
2021/06/12 06:39:16;;;;;;;1.00;0.50;;;16.00;66.60;;;;;;4905764;29;20043;-72
2021/06/12 06:41:43;;;;;;;1.77;0.70;;;15.90;67.80;;;;;;4918525;29;20371;-71
2021/06/12 06:44:11;;;;;;;0.60;0.45;;;15.70;68.40;;;;;;4913316;29;20040;-71
2021/06/12 06:46:39;;;;;;;0.82;0.47;;;15.60;69.00;;;;;;4904709;29;20024;-71
2021/06/12 06:49:06;;;;;;;0.52;0.50;;;15.50;69.50;;;;;;4925124;29;20167;-72
2021/06/12 06:51:34;;;;;;;1.05;0.60;;;15.30;70.00;;;;;;4897099;29;20578;-70
2021/06/12 06:54:01;;;;;;;1.17;0.82;;;15.20;70.70;;;;;;4921884;29;20023;-72
2021/06/12 06:56:28;;;;;;;2.38;0.88;;;15.10;70.70;;;;;;4926819;29;20071;-71
2021/06/12 06:58:56;;;;;;;1.77;0.90;;;15.00;71.30;;;;;;4923411;29;20024;-72
2021/06/12 07:01:24;;;;;;;1.30;0.70;;;14.90;71.70;;;;;;4928973;29;20043;-71
2021/06/12 07:03:51;;;;;;;1.73;0.90;;;14.70;73.70;;;;;;4920190;29;20099;-71
2021/06/12 07:06:18;;;;;;;1.23;0.80;;;14.60;74.20;;;;;;4921711;29;20036;-72
2021/06/12 07:08:46;;;;;;;1.38;0.90;;;14.40;75.90;;;;;;4909188;29;20044;-70
2021/06/12 07:11:13;;;;;;;1.42;0.77;;;14.20;76.80;;;;;;4923432;29;20118;-73
2021/06/12 07:13:42;;;;;;;1.83;1.00;;;14.10;77.00;;;;;;4915081;29;20122;-71
2021/06/12 07:16:09;;;;;;;2.47;1.52;;;14.00;78.00;;;;;;4924104;29;20036;-71
2021/06/12 07:18:36;;;;;;;3.72;2.05;;;13.80;78.00;;;;;;4926481;29;20122;-72
2021/06/12 07:21:04;;;;;;;3.28;1.85;;;13.80;78.10;;;;;;4917414;29;20035;-71
2021/06/12 07:23:32;;;;;;;2.08;1.42;;;13.80;77.60;;;;;;4916072;29;20031;-72
2021/06/12 07:25:59;;;;;;;2.20;1.88;;;13.80;77.70;;;;;;4917925;29;20027;-72
2021/06/12 07:28:27;;;;;;;2.47;1.40;;;13.80;78.70;;;;;;4913867;29;20047;-71
2021/06/12 07:30:54;;;;;;;3.20;2.08;;;13.70;79.80;;;;;;4917825;29;20387;-71
2021/06/12 07:33:22;;;;;;;1.77;0.95;;;13.60;79.50;;;;;;4926913;29;20060;-71
2021/06/12 07:35:49;;;;;;;3.13;1.10;;;13.50;79.80;;;;;;4920035;29;20391;-73
2021/06/12 07:38:17;;;;;;;6.13;1.70;;;13.40;80.80;;;;;;4921529;29;20031;-71
2021/06/12 07:40:44;;;;;;;4.07;1.60;;;13.30;80.90;;;;;;4922063;29;20067;-69
2021/06/12 07:43:13;;;;;;;1.98;1.52;;;13.30;81.30;;;;;;4917923;29;20122;-70
2021/06/12 07:45:41;;;;;;;2.35;1.80;;;13.10;82.10;;;;;;4899090;29;20055;-73
2021/06/12 07:48:09;;;;;;;3.78;2.67;;;13.10;83.40;;;;;;4911628;29;20035;-71
2021/06/12 07:50:36;;;;;;;5.28;3.38;;;13.00;82.60;;;;;;4913708;29;20032;-69
2021/06/12 07:53:04;;;;;;;6.38;4.28;;;12.90;83.50;;;;;;4912041;29;20074;-70
2021/06/12 07:55:33;;;;;;;6.03;3.72;;;12.80;85.30;;;;;;4913193;29;20036;-72
2021/06/12 07:58:01;;;;;;;5.65;4.05;;;12.70;86.90;;;;;;4910888;29;20039;-71
2021/06/12 08:00:29;;;;;;;4.28;3.25;;;12.60;86.10;;;;;;4916122;29;20064;-70
2021/06/12 08:02:57;;;;;;;4.82;3.50;;;12.60;86.60;;;;;;4915411;29;20257;-72
2021/06/12 08:05:33;;;;;;;4.85;3.92;;;12.50;86.70;;;;;;4913268;29;20034;-72
2021/06/12 08:08:01;;;;;;;7.78;3.72;;;12.50;87.10;;;;;;4895995;29;20599;-72
2021/06/12 08:10:28;;;;;;;6.95;4.90;;;12.40;88.60;;;;;;4898749;29;20039;-70
2021/06/12 08:12:56;;;;;;;7.63;4.63;;;12.30;88.30;;;;;;4914781;28;20066;-70
2021/06/12 08:15:24;;;;;;;10.25;4.53;;;12.30;88.70;;;;;;4905898;29;20055;-71
2021/06/12 08:17:52;;;;;;;6.60;4.30;;;12.20;89.90;;;;;;4914936;29;20039;-70
2021/06/12 08:20:20;;;;;;;7.20;4.40;;;12.10;90.70;;;;;;4916377;29;20114;-70
2021/06/12 08:22:47;;;;;;;7.18;3.90;;;12.00;90.20;;;;;;4916839;28;20071;-72
2021/06/12 08:25:15;;;;;;;8.45;5.13;;;12.00;90.70;;;;;;4917319;29;20530;-70
2021/06/12 08:27:42;;;;;;;9.88;6.15;;;11.90;91.10;;;;;;4918707;29;20039;-72
2021/06/12 08:30:10;;;;;;;11.13;7.43;;;11.90;90.50;;;;;;4918841;29;20027;-71
2021/06/12 08:32:41;;;;;;;10.38;6.60;;;12.00;89.90;;;;;;4927210;29;20111;-70
2021/06/12 08:35:09;;;;;;;8.98;5.32;;;12.00;90.00;;;;;;4926816;29;20382;-70
2021/06/12 08:37:39;;;;;;;11.15;6.25;;;12.00;90.20;;;;;;4933049;29;20086;-71
2021/06/12 08:40:07;;;;;;;9.48;6.07;;;11.90;90.40;;;;;;4928732;29;20020;-72
2021/06/12 08:42:34;;;;;;;11.63;6.57;;;11.80;90.90;;;;;;4930323;29;20511;-72
2021/06/12 08:45:05;;;;;;;8.75;4.88;;;11.70;90.90;;;;;;4922962;29;20027;-71
2021/06/12 08:47:36;;;;;;;7.10;4.18;;;11.60;90.60;;;;;;4917676;29;20391;-71
2021/06/12 08:50:09;;;;;;;5.22;3.13;;;11.60;90.60;;;;;;4929862;29;20061;-71
2021/06/12 08:52:38;;;;;;;5.85;3.80;;;11.60;90.30;;;;;;4928608;29;20486;-74
2021/06/12 08:55:10;;;;;;;5.53;3.40;;;11.70;90.10;;;;;;4924930;29;20031;-69
2021/06/12 08:57:39;;;;;;;8.00;5.15;;;11.70;89.90;;;;;;4906973;29;20032;-68
2021/06/12 09:00:08;;;;;;;8.02;4.68;;;11.70;90.00;;;;;;4913300;29;20043;-70
2021/06/12 09:03:09;;;;;;;10.60;6.03;;;11.70;90.20;;;;;;4906229;29;20044;-71
2021/06/12 09:05:54;;;;;;;8.70;6.03;;;11.70;90.20;;;;;;4927290;29;20119;-69
2021/06/12 09:08:27;;;;;;;12.82;8.60;;;11.70;90.30;;;;;;4930931;29;20031;-70
2021/06/12 09:11:13;;;;;;;16.45;8.93;;;11.60;90.30;;;;;;4924907;29;20087;-68
2021/06/12 09:13:45;;;;;;;15.35;9.18;;;11.60;90.40;;;;;;4932421;29;20036;-70
2021/06/12 09:16:41;;;;;;;10.68;7.60;;;11.60;90.80;;;;;;4926900;29;20118;-69
2021/06/12 09:19:20;;;;;;;12.07;7.50;;;11.60;90.50;;;;;;4916256;29;20043;-69
2021/06/12 09:21:48;;;;;;;9.77;6.93;;;11.60;90.70;;;;;;4924948;29;20122;-70
2021/06/12 09:24:34;;;;;;;8.43;5.35;;;11.50;90.90;;;;;;4924103;29;20402;-70
2021/06/12 09:27:17;;;;;;;5.20;3.28;;;11.40;90.30;;;;;;4923793;29;20059;-70
2021/06/12 09:29:50;;;;;;;3.63;2.67;;;11.40;90.20;;;;;;4926355;29;20115;-70
2021/06/12 09:32:23;;;;;;;3.58;2.40;;;11.40;90.00;;;;;;4925424;29;22217;-70
2021/06/12 09:34:54;;;;;;;2.72;2.28;;;11.40;90.00;;;;;;4923440;29;20028;-70
2021/06/12 09:37:24;;;;;;;3.20;2.22;;;11.30;90.50;;;;;;4908116;29;20028;-69
2021/06/12 09:40:07;;;;;;;2.13;1.27;;;11.30;90.10;;;;;;4927403;29;20132;-71
2021/06/12 09:42:55;;;;;;;2.90;1.08;;;11.30;89.60;;;;;;4924709;29;20411;-70
2021/06/12 09:45:32;;;;;;;1.05;0.60;;;11.40;88.60;;;;;;4925612;29;20035;-69
2021/06/12 09:48:14;;;;;;;1.40;0.60;;;11.40;88.20;;;;;;4915751;28;20090;-69
2021/06/12 09:50:43;;;;;;;1.05;0.40;;;11.50;87.20;;;;;;4926098;29;20492;-69
2021/06/12 09:53:19;;;;;;;0.50;0.30;;;11.60;86.60;;;;;;4925640;29;20554;-69
2021/06/12 09:55:47;;;;;;;0.52;0.38;;;11.60;86.30;;;;;;4924753;29;20080;-69
2021/06/12 09:58:15;;;;;;;0.47;0.30;;;11.60;86.40;;;;;;4924679;29;20482;-69
2021/06/12 10:00:48;;;;;;;0.20;0.20;;;11.60;86.40;;;;;;4923757;29;20047;-69
2021/06/12 10:03:32;;;;;;;0.88;0.43;;;11.60;86.50;;;;;;4925308;29;20506;-71
2021/06/12 10:06:21;;;;;;;0.22;0.20;;;11.60;86.30;;;;;;4924186;29;20498;-69
2021/06/12 10:08:50;;;;;;;1.30;0.93;;;11.60;86.20;;;;;;4924335;29;20076;-71
2021/06/12 10:11:21;;;;;;;3.03;1.65;;;11.80;85.60;;;;;;4924864;29;20521;-71
2021/06/12 10:13:49;;;;;;;2.90;2.20;;;11.80;86.40;;;;;;4922358;29;20070;-70
2021/06/12 10:16:17;;;;;;;2.30;1.55;;;11.70;87.00;;;;;;4922487;29;20052;-70
2021/06/12 10:18:47;;;;;;;2.40;1.20;;;11.60;88.00;;;;;;4895809;29;20046;-71
2021/06/12 10:21:16;;;;;;;2.38;1.65;;;11.50;88.80;;;;;;4927218;29;20024;-71
2021/06/12 10:23:46;;;;;;;1.90;1.40;;;11.40;90.00;;;;;;4922024;29;20114;-70
2021/06/12 10:26:16;;;;;;;0.90;0.60;;;11.20;90.00;;;;;;4925697;29;20030;-71
2021/06/12 10:28:44;;;;;;;8.30;4.07;;;11.00;90.10;;;;;;4924531;29;20051;-71
2021/06/12 10:31:14;;;;;;;14.82;7.45;;;11.00;90.10;;;;;;4927844;29;20023;-70
2021/06/12 10:33:43;;;;;;;26.05;12.55;;;11.00;90.00;;;;;;4912037;29;20023;-71
2021/06/12 10:36:18;;;;;;;4.68;2.08;;;11.00;90.10;;;;;;4924511;29;20036;-71
2021/06/12 10:38:47;;;;;;;7.68;4.07;;;11.00;90.00;;;;;;4929249;29;20126;-71
2021/06/12 10:41:22;;;;;;;11.15;5.93;;;10.90;90.30;;;;;;4929125;29;20039;-71
2021/06/12 10:43:55;;;;;;;12.23;6.25;;;10.70;91.00;;;;;;4927808;29;20035;-70
2021/06/12 10:46:25;;;;;;;9.88;6.18;;;10.50;91.70;;;;;;4926872;29;20024;-69
2021/06/12 10:48:54;;;;;;;8.05;4.72;;;10.40;92.30;;;;;;4921952;29;20386;-72
2021/06/12 10:51:27;;;;;;;9.98;6.05;;;10.40;92.30;;;;;;4914688;28;20083;-70
2021/06/12 10:54:10;;;;;;;20.98;12.25;;;10.30;92.60;;;;;;4928577;29;20115;-69
2021/06/12 10:56:43;;;;;;;21.17;12.23;;;10.10;92.70;;;;;;4926035;29;20100;-70
2021/06/12 10:59:14;;;;;;;16.30;8.65;;;10.10;93.10;;;;;;4907129;29;20044;-70
2021/06/12 11:02:39;;;;;;;10.85;5.85;;;10.10;93.10;;;;;;4927742;29;20044;-70
2021/06/12 11:05:05;;;;;;;9.27;5.85;;;10.00;93.10;;;;;;4922994;29;20114;-71
2021/06/12 11:07:35;;;;;;;9.73;5.40;;;9.80;93.40;;;;;;4924016;29;20471;-71
2021/06/12 11:10:11;;;;;;;9.55;6.28;;;9.70;93.80;;;;;;4924647;29;20055;-69
2021/06/12 11:12:43;;;;;;;7.22;4.88;;;9.70;94.20;;;;;;4925026;29;20031;-71
2021/06/12 11:15:12;;;;;;;9.60;5.30;;;9.50;94.30;;;;;;4928128;29;20339;-71
2021/06/12 11:17:42;;;;;;;10.15;6.03;;;9.50;94.70;;;;;;4924670;29;20032;-70
2021/06/12 11:20:15;;;;;;;12.18;5.60;;;9.50;94.90;;;;;;4911973;29;20024;-70
2021/06/12 11:23:00;;;;;;;7.43;4.93;;;9.40;95.10;;;;;;4923341;29;20525;-72
2021/06/12 11:25:28;;;;;;;9.40;4.80;;;9.30;95.10;;;;;;4923536;29;20036;-70
2021/06/12 11:28:18;;;;;;;12.88;5.50;;;9.30;95.10;;;;;;4926586;29;20040;-70
2021/06/12 11:30:45;;;;;;;7.38;3.88;;;9.30;95.30;;;;;;4926129;29;20032;-71
2021/06/12 11:33:13;;;;;;;6.00;3.63;;;9.20;95.10;;;;;;4923882;29;20040;-73
2021/06/12 11:36:01;;;;;;;11.45;7.07;;;9.10;95.30;;;;;;4922163;29;20095;-70
2021/06/12 11:38:39;;;;;;;14.18;9.25;;;9.00;95.80;;;;;;4924394;29;20042;-71
2021/06/12 11:41:17;;;;;;;17.58;10.73;;;8.90;96.00;;;;;;4928375;29;20032;-70
2021/06/12 11:43:49;;;;;;;13.35;7.72;;;9.00;95.90;;;;;;4926871;29;20039;-70
2021/06/12 11:46:36;;;;;;;9.85;6.95;;;9.00;95.70;;;;;;4927394;29;20035;-70
2021/06/12 11:49:09;;;;;;;9.15;5.53;;;9.10;95.20;;;;;;4929012;29;20032;-70
2021/06/12 11:51:40;;;;;;;6.80;4.63;;;9.20;94.80;;;;;;4916427;29;20095;-71
2021/06/12 11:54:14;;;;;;;6.68;4.70;;;9.30;94.50;;;;;;4925677;29;20028;-71
2021/06/12 11:56:46;;;;;;;11.73;6.30;;;9.30;94.70;;;;;;4927162;29;20664;-72
2021/06/12 11:59:20;;;;;;;11.07;6.22;;;9.40;94.80;;;;;;4925696;29;20094;-69
2021/06/12 12:02:02;;;;;;;7.78;5.03;;;9.30;95.10;;;;;;4927897;29;20854;-69
2021/06/12 12:04:34;;;;;;;13.82;7.30;;;9.20;95.20;;;;;;4928593;29;20428;-69
2021/06/12 12:07:04;;;;;;;8.77;6.28;;;9.10;95.50;;;;;;4929604;29;20031;-68
2021/06/12 12:09:31;;;;;;;9.52;5.97;;;9.00;95.70;;;;;;4929169;29;20035;-69
2021/06/12 12:12:01;;;;;;;9.13;6.35;;;8.90;95.70;;;;;;4929971;29;20079;-70
2021/06/12 12:14:33;;;;;;;9.02;5.85;;;8.80;96.50;;;;;;4925899;29;20142;-70
2021/06/12 12:17:02;;;;;;;9.07;6.40;;;8.80;96.50;;;;;;4925842;29;21228;-70
2021/06/12 12:19:29;;;;;;;9.05;6.38;;;8.70;96.80;;;;;;4925551;29;20063;-70
2021/06/12 12:21:59;;;;;;;12.05;6.72;;;8.60;96.70;;;;;;4917052;29;20043;-70
2021/06/12 12:24:32;;;;;;;8.23;5.75;;;8.60;96.70;;;;;;4925489;29;20398;-69
2021/06/12 12:27:02;;;;;;;8.50;5.55;;;8.60;96.80;;;;;;4927762;29;20079;-71
2021/06/12 12:29:33;;;;;;;10.23;6.63;;;8.50;96.60;;;;;;4926799;29;20028;-69
2021/06/12 12:32:01;;;;;;;11.23;6.05;;;8.50;97.00;;;;;;4923396;29;20317;-69
2021/06/12 12:34:36;;;;;;;8.18;5.53;;;8.50;96.80;;;;;;4925184;29;20042;-69
2021/06/12 12:37:06;;;;;;;11.55;6.07;;;8.40;97.20;;;;;;4929211;29;20099;-69
2021/06/12 12:39:38;;;;;;;7.35;5.60;;;8.40;97.10;;;;;;4925623;29;20079;-69
2021/06/12 12:42:06;;;;;;;8.32;6.47;;;8.40;97.00;;;;;;4924467;29;20042;-69
2021/06/12 12:44:34;;;;;;;8.05;5.32;;;8.50;96.90;;;;;;4925928;29;20675;-68
2021/06/12 12:47:02;;;;;;;9.30;6.10;;;8.40;97.10;;;;;;4926074;29;21584;-70
2021/06/12 12:49:33;;;;;;;8.90;5.78;;;8.50;96.90;;;;;;4927194;29;20055;-70
2021/06/12 12:52:03;;;;;;;8.27;5.47;;;8.50;96.90;;;;;;4927399;29;20513;-71
2021/06/12 12:54:35;;;;;;;7.82;5.80;;;8.40;96.60;;;;;;4918146;29;20044;-69
2021/06/12 12:57:10;;;;;;;10.68;5.65;;;8.40;97.00;;;;;;4924181;29;20099;-71
2021/06/12 12:59:45;;;;;;;9.13;5.43;;;8.40;96.90;;;;;;4912853;29;20787;-70
2021/06/12 13:02:13;;;;;;;9.73;6.05;;;8.30;97.30;;;;;;4933175;29;20055;-70
2021/06/12 13:04:43;;;;;;;11.27;7.03;;;8.30;97.60;;;;;;4924520;29;20090;-72